In Amenas, Algeria
Current Conditions -  °F | °C
As of 2:00 AM on Tuesday 23 Dec 2014 (Local Time) from DAUZ Reporting Station
Clear Clear  
Wind Chill: 54°   Ceiling: Unl
Heat Index: 54°   Visibility: 6mi
Dew Point: 32°   Wind: 12mph
Humidity: 44%   Direction: 90°E
Pressure: 30.36"   Gusts: NA
Location:  28.05°N, 9.56°E
Report Text: DAUZ 230100Z 09010KT CAVOK 12/00 Q1028
Loading
Personal Weather Stations






























Interactive Weather Map New forecast layout! Learn more

10-Day Weather Forecast

Advertisements
Track Severe Weather on mobile